Metar Cercanos

 

LEPA - Palma De Mallorc, Spain
Distance from station: ONO 38km
Actualización: 23/10/2018 22:30
Despejado
Despejado
 Viento del NE
Viento: NE 2 km/h
Temperatura: 13°C
Rocío: 12°C
Humedad: 94%
Barómetro: 1024 hPa
Resumen: Despejado
Visibility: greater than 10 km
2018/10/23 20:30 LEPA 232030Z 04001KT CAVOK 13/12 Q1024 NOSIG
LEMH - Mahon/Menorca Is, Spain
Distance from station: ENE 105km
Actualización: 23/10/2018 22:30
Few Clouds
Few Clouds
 Viento del N
Viento: N 7 km/h
Temperatura: 15°C
Rocío: 10°C
Humedad: 72%
Barómetro: 1023 hPa
Clouds: Few Clouds
Visibility: 10 km
Cloud details: Few Clouds 762 m
2018/10/23 20:30 LEMH 232030Z 35004KT 9999 FEW025 15/10 Q1023
 
LEIB - Ibiza/Es Codola, Spain
Distance from station: OSO 165km
Actualización: 23/10/2018 22:30
Despejado
Despejado
 Viento del calm
Viento: Calma
Temperatura: 17°C
Rocío: 15°C
Humedad: 88%
Barómetro: 1025 hPa
Resumen: Despejado
Visibility: greater than 10 km
2018/10/23 20:30 LEIB 232030Z 00000KT CAVOK 17/15 Q1025 NOSIG
LEBL - Barcelona Airpor, Spain
Distance from station: NNO 225km
Actualización: 23/10/2018 22:30
Despejado
Despejado
 Viento del NO
Viento: NO 15 km/h
Temperatura: 16°C
Rocío: 11°C
Humedad: 72%
Barómetro: 1024 hPa
Resumen: Despejado
Visibility: greater than 10 km
2018/10/23 20:30 LEBL 232030Z 31008KT 250V340 CAVOK 16/11 Q1024 NOSIG
 
LEVC - Valencia (civ/Mi, Spain
Distance from station: NO 188km
Actualización: 23/10/2018 22:30
Parcialmente nuboso
Parcialmente nuboso
 Viento del NO
Viento: NO 6 km/h
Temperatura: 19°C
Rocío: 17°C
Humedad: 88%
Barómetro: 1026 hPa
Clouds: Parcialmente nuboso
Visibility: 10 km
Cloud details: Few Clouds 610 m
Parcialmente nuboso 914 m
2018/10/23 20:30 LEVC 232030Z 32003KT 280V070 9999 FEW020 SCT030 19/17 Q1026 NOSIG
LEGE - Gerona/Costa Bra, Spain
Distance from station: N 276km
Actualización: 23/10/2018 22:30
Few Clouds
Few Clouds
 Viento del NE
Viento: NE 7 km/h
Temperatura: 13°C
Rocío: 11°C
Humedad: 88%
Barómetro: 1024 hPa
Clouds: Few Clouds
Visibility: 10 km
Cloud details: Few Clouds 1494 m
2018/10/23 20:30 LEGE 232030Z 04004KT 310V080 9999 FEW049 13/11 Q1024
 
LEAL - Alicante/El Alte, Spain
Distance from station: OSO 344km
Actualización: 23/10/2018 22:30
Few Clouds
Few Clouds
 Viento del ONO
Viento: ONO 6 km/h
Temperatura: 18°C
Rocío: 15°C
Humedad: 83%
Barómetro: 1026 hPa
Clouds: Few Clouds
Visibility: 10 km
Cloud details: Few Clouds 853 m
2018/10/23 20:30 LEAL 232030Z 29003KT 260V320 9999 FEW028 18/15 Q1026 NOSIG
LEAM - Almeria Airport, Spain
Distance from station: SSO 56km
Actualización: 23/10/2018 22:30
Few Clouds
Few Clouds
 Viento del NNE
Viento: NNE 11 km/h
Temperatura: 21°C
Rocío: 15°C
Humedad: 69%
Barómetro: 1025 hPa
Clouds: Few Clouds
Visibility: 10 km
Cloud details: Few Clouds 1219 m
2018/10/23 20:30 LEAM 232030Z 03006KT 9999 FEW040 21/15 Q1025
 
LEZG - Zaragoza (mil/Ci, Spain
Distance from station: NO 431km
Actualización: 23/10/2018 22:30
Despejado
Despejado
 Viento del O
Viento: O 20 km/h
Temperatura: 16°C
Rocío: 8°C
Humedad: 59%
Barómetro: 1027 hPa
Resumen: Despejado
Visibility: greater than 10 km
2018/10/23 20:30 LEZG 232030Z 27011KT CAVOK 16/08 Q1027
LEMD - Madrid/Barajas, Spain
Distance from station: ONO 234km
Actualización: 23/10/2018 22:30
Despejado
Despejado
 Viento del NNO
Viento: NNO 7 km/h
Temperatura: 15°C
Rocío: 12°C
Humedad: 82%
Barómetro: 1027 hPa
Resumen: Despejado
Visibility: greater than 10 km
2018/10/23 20:30 LEMD 232030Z 34004KT CAVOK 15/12 Q1027 NOSIG
 
LEGR - Granada Airport, Spain
Distance from station: OSO 62km
Actualización: 23/10/2018 22:30
Few Clouds
Few Clouds
 Viento del calm
Viento: Calma
Temperatura: 16°C
Rocío: 14°C
Humedad: 88%
Barómetro: 1026 hPa
Clouds: Few Clouds
Visibility: 10 km
Cloud details: Few Clouds 1524 m
2018/10/23 20:30 LEGR 232030Z 00000KT 9999 FEW050 16/14 Q1026
LEMG - Malaga (civ/Mil), Spain
Distance from station: OSO 227km
Actualización: 23/10/2018 22:30
Muy nuboso
Muy nuboso
 Viento del varies
Viento: varies 4 km/h
Temperatura: 20°C
Rocío: 18°C
Humedad: 88%
Barómetro: 1025 hPa
Clouds: Muy nuboso
Visibility: 10 km
Cloud details: Few Clouds 518 m
Parcialmente nuboso 762 m
Muy nuboso 1524 m
2018/10/23 20:30 LEMG 232030Z VRB02KT 9999 FEW017 SCT025 BKN050 20/18 Q1025 NOSIG
 
LEZL - Sevilla (civ/Mil, Spain
Distance from station: S 318km
Actualización: 23/10/2018 22:30
Few Clouds
Few Clouds
 Viento del calm
Viento: Calma
Temperatura: 21°C
Rocío: 18°C
Humedad: 83%
Barómetro: 1024 hPa
Clouds: Few Clouds
Visibility: 10 km
Cloud details: Few Clouds 305 m
2018/10/23 20:30 LEZL 232030Z 00000KT 9999 FEW010 21/18 Q1024 NOSIG
LEVT - Vitoria, Spain
Distance from station: NO 226km
Actualización: 23/10/2018 22:30
Few Clouds
Few Clouds
 Viento del varies
Viento: varies 2 km/h
Temperatura: 9°C
Rocío: 8°C
Humedad: 94%
Barómetro: 1031 hPa
Clouds: Few Clouds
Visibility: 9 km
Cloud details: Few Clouds 427 m
2018/10/23 20:30 LEVT 232030Z VRB01KT 9000 FEW014 09/08 Q1031
 
LEBB - Bilbao/Sondica, Spain
Distance from station: NNO 235km
Actualización: 23/10/2018 22:30
Few Clouds
Few Clouds
 Viento del varies
Viento: varies 4 km/h
Temperatura: 12°C
Rocío: 11°C
Humedad: 94%
Barómetro: 1031 hPa
Clouds: Few Clouds
Visibility: 10 km
Cloud details: Few Clouds 732 m
2018/10/23 20:30 LEBB 232030Z VRB02KT 9999 FEW024 12/11 Q1031 NOSIG
LESO - San Sebastian/Fu, Spain
Distance from station: N 231km
Actualización: 23/10/2018 22:30
Muy nuboso
Muy nuboso
 Viento del SSO
Viento: SSO 6 km/h
Temperatura: 12°C
Rocío: 10°C
Humedad: 88%
Barómetro: 1031 hPa
Clouds: Muy nuboso
Visibility: 10 km
Cloud details: Muy nuboso 610 m
2018/10/23 20:30 LESO 232030Z AUTO 21003KT 9999 BKN020/// 12/10 Q1031
 
LEVD - Valladolid(Mil/C, Spain
Distance from station: ONO 239km
Actualización: 23/10/2018 21:30
NOT Current
Despejado
Despejado
 Viento del NE
Viento: NE 17 km/h
Temperatura: 12°C
Rocío: 3°C
Humedad: 54%
Barómetro: 1028 hPa
Resumen: Despejado
Visibility: greater than 10 km
2018/10/23 19:30 LEVD 231930Z 04009KT CAVOK 12/03 Q1028
LESA - Salamanca (civ/M, Spain
Distance from station: ONO 349km
Actualización: 23/10/2018 22:30
Despejado
Despejado
 Viento del calm
Viento: Calma
Temperatura: 10°C
Rocío: 6°C
Humedad: 76%
Barómetro: 1028 hPa
Clouds: Despejado
Visibility: 10 km
2018/10/23 20:30 LESA 232030Z AUTO 00000KT 9999 NCD 10/06 Q1028
 
LEXJ - Santander/Paraya, Spain
Distance from station: NNO 247km
Actualización: 23/10/2018 22:30
Few Clouds
Few Clouds
 Viento del S
Viento: S 4 km/h
Temperatura: 13°C
Rocío: 13°C
Humedad: 100%
Barómetro: 1031 hPa
Clouds: Few Clouds
Visibility: 10 km
Cloud details: Few Clouds 732 m
2018/10/23 20:30 LEXJ 232030Z 17002KT 9999 FEW024 13/13 Q1031
LEAS - Asturias/Aviles, Spain
Distance from station: NO 214km
Actualización: 23/10/2018 22:30
Parcialmente nuboso
Parcialmente nuboso
 Viento del E
Viento: E 15 km/h
Temperatura: 14°C
Rocío: 12°C
Humedad: 88%
Barómetro: 1031 hPa
Clouds: Parcialmente nuboso
Visibility: 10 km
Cloud details: Parcialmente nuboso 549 m
2018/10/23 20:30 LEAS 232030Z 10008KT 070V150 9999 SCT018 14/12 Q1031 NOSIG
 
LECO - La Coruna/Alvedr, Spain
Distance from station: ONO 222km
Actualización: 23/10/2018 22:30
Despejado
Despejado
 Viento del calm
Viento: Calma
Temperatura: 15°C
Rocío: 11°C
Humedad: 77%
Barómetro: 1027 hPa
Resumen: Despejado
Visibility: greater than 10 km
2018/10/23 20:30 LECO 232030Z 00000KT CAVOK 15/11 Q1027
LEVX - Vigo/Peinador, Spain
Distance from station: O 214km
Actualización: 23/10/2018 22:30
Despejado
Despejado
 Viento del SSO
Viento: SSO 11 km/h
Temperatura: 18°C
Rocío: 11°C
Humedad: 64%
Barómetro: 1026 hPa
Resumen: Despejado
Visibility: greater than 10 km
2018/10/23 20:30 LEVX 232030Z 20006KT CAVOK 18/11 Q1026 NOSIG